sensor_id;sensor_type;location;lat;lon;timestamp;P1;durP1;ratioP1;P2;durP2;ratioP2
77701;SDS011;66868;42.708;23.404;2023-02-13T00:01:55;88.40;;;40.30;;
77701;SDS011;66868;42.708;23.404;2023-02-13T00:04:21;93.17;;;41.13;;
77701;SDS011;66868;42.708;23.404;2023-02-13T00:06:46;83.60;;;38.40;;
77701;SDS011;66868;42.708;23.404;2023-02-13T00:09:12;92.50;;;40.37;;
77701;SDS011;66868;42.708;23.404;2023-02-13T00:11:38;95.30;;;40.90;;
77701;SDS011;66868;42.708;23.404;2023-02-13T00:14:03;100.93;;;42.33;;
77701;SDS011;66868;42.708;23.404;2023-02-13T00:16:29;99.43;;;40.80;;
77701;SDS011;66868;42.708;23.404;2023-02-13T00:18:54;93.37;;;40.33;;
77701;SDS011;66868;42.708;23.404;2023-02-13T00:21:20;102.00;;;44.93;;
77701;SDS011;66868;42.708;23.404;2023-02-13T00:23:46;96.67;;;41.83;;
77701;SDS011;66868;42.708;23.404;2023-02-13T00:26:12;103.87;;;44.43;;
77701;SDS011;66868;42.708;23.404;2023-02-13T00:28:39;124.53;;;50.87;;
77701;SDS011;66868;42.708;23.404;2023-02-13T00:31:06;134.13;;;56.23;;
77701;SDS011;66868;42.708;23.404;2023-02-13T00:33:33;135.23;;;56.50;;
77701;SDS011;66868;42.708;23.404;2023-02-13T00:38:33;169.27;;;66.67;;
77701;SDS011;66868;42.708;23.404;2023-02-13T00:40:59;174.03;;;69.37;;
77701;SDS011;66868;42.708;23.404;2023-02-13T00:43:25;227.77;;;82.40;;
77701;SDS011;66868;42.708;23.404;2023-02-13T00:45:50;233.97;;;91.50;;
77701;SDS011;66868;42.708;23.404;2023-02-13T00:48:16;261.27;;;99.37;;
77701;SDS011;66868;42.708;23.404;2023-02-13T00:50:41;295.33;;;108.17;;
77701;SDS011;66868;42.708;23.404;2023-02-13T00:53:07;311.73;;;111.60;;
77701;SDS011;66868;42.708;23.404;2023-02-13T00:55:32;307.90;;;111.00;;
77701;SDS011;66868;42.708;23.404;2023-02-13T00:57:59;304.00;;;105.07;;
77701;SDS011;66868;42.708;23.404;2023-02-13T01:00:24;329.63;;;107.30;;
77701;SDS011;66868;42.708;23.404;2023-02-13T01:02:50;317.07;;;107.70;;
77701;SDS011;66868;42.708;23.404;2023-02-13T01:05:15;262.93;;;97.03;;
77701;SDS011;66868;42.708;23.404;2023-02-13T01:07:40;230.33;;;85.77;;
77701;SDS011;66868;42.708;23.404;2023-02-13T01:10:06;234.07;;;82.10;;
77701;SDS011;66868;42.708;23.404;2023-02-13T01:12:31;193.20;;;72.73;;
77701;SDS011;66868;42.708;23.404;2023-02-13T01:14:57;194.17;;;71.10;;
77701;SDS011;66868;42.708;23.404;2023-02-13T01:17:22;169.27;;;68.47;;
77701;SDS011;66868;42.708;23.404;2023-02-13T01:19:48;146.67;;;59.63;;
77701;SDS011;66868;42.708;23.404;2023-02-13T01:22:13;138.27;;;58.43;;
77701;SDS011;66868;42.708;23.404;2023-02-13T01:24:38;147.47;;;58.77;;
77701;SDS011;66868;42.708;23.404;2023-02-13T01:27:04;152.33;;;60.63;;
77701;SDS011;66868;42.708;23.404;2023-02-13T01:29:29;137.13;;;57.40;;
77701;SDS011;66868;42.708;23.404;2023-02-13T01:31:55;126.10;;;53.50;;
77701;SDS011;66868;42.708;23.404;2023-02-13T01:34:20;126.60;;;55.70;;
77701;SDS011;66868;42.708;23.404;2023-02-13T01:36:45;150.97;;;58.80;;
77701;SDS011;66868;42.708;23.404;2023-02-13T01:39:11;145.07;;;58.00;;
77701;SDS011;66868;42.708;23.404;2023-02-13T01:41:37;141.57;;;58.60;;
77701;SDS011;66868;42.708;23.404;2023-02-13T01:44:03;137.10;;;59.47;;
77701;SDS011;66868;42.708;23.404;2023-02-13T01:46:48;134.30;;;56.87;;
77701;SDS011;66868;42.708;23.404;2023-02-13T01:49:15;128.03;;;53.67;;
77701;SDS011;66868;42.708;23.404;2023-02-13T01:51:43;138.07;;;58.73;;
77701;SDS011;66868;42.708;23.404;2023-02-13T01:54:14;152.50;;;62.03;;
77701;SDS011;66868;42.708;23.404;2023-02-13T01:56:44;142.17;;;58.00;;
77701;SDS011;66868;42.708;23.404;2023-02-13T01:59:18;143.30;;;59.83;;
77701;SDS011;66868;42.708;23.404;2023-02-13T02:01:49;130.47;;;56.40;;
77701;SDS011;66868;42.708;23.404;2023-02-13T02:04:18;128.90;;;55.27;;
77701;SDS011;66868;42.708;23.404;2023-02-13T02:06:50;118.47;;;54.50;;
77701;SDS011;66868;42.708;23.404;2023-02-13T02:09:19;116.43;;;51.17;;
77701;SDS011;66868;42.708;23.404;2023-02-13T02:11:58;116.53;;;50.70;;
77701;SDS011;66868;42.708;23.404;2023-02-13T02:14:54;118.80;;;51.70;;
77701;SDS011;66868;42.708;23.404;2023-02-13T02:17:22;118.97;;;53.00;;
77701;SDS011;66868;42.708;23.404;2023-02-13T02:31:37;102.20;;;47.40;;
77701;SDS011;66868;42.708;23.404;2023-02-13T02:34:40;106.03;;;45.67;;
77701;SDS011;66868;42.708;23.404;2023-02-13T02:42:49;113.93;;;51.47;;
77701;SDS011;66868;42.708;23.404;2023-02-13T02:45:27;121.07;;;52.77;;
77701;SDS011;66868;42.708;23.404;2023-02-13T02:48:03;162.90;;;64.50;;
77701;SDS011;66868;42.708;23.404;2023-02-13T02:56:22;141.40;;;61.37;;
77701;SDS011;66868;42.708;23.404;2023-02-13T02:58:59;130.77;;;56.43;;
77701;SDS011;66868;42.708;23.404;2023-02-13T03:01:46;133.07;;;55.63;;
77701;SDS011;66868;42.708;23.404;2023-02-13T03:04:42;131.47;;;53.70;;
77701;SDS011;66868;42.708;23.404;2023-02-13T03:07:30;128.00;;;52.03;;
77701;SDS011;66868;42.708;23.404;2023-02-13T03:09:57;134.77;;;56.80;;
77701;SDS011;66868;42.708;23.404;2023-02-13T03:12:51;121.30;;;53.80;;
77701;SDS011;66868;42.708;23.404;2023-02-13T03:15:40;142.83;;;58.03;;
77701;SDS011;66868;42.708;23.404;2023-02-13T03:18:27;145.47;;;56.90;;
77701;SDS011;66868;42.708;23.404;2023-02-13T03:21:22;137.27;;;53.53;;
77701;SDS011;66868;42.708;23.404;2023-02-13T03:24:12;133.60;;;55.40;;
77701;SDS011;66868;42.708;23.404;2023-02-13T03:27:03;122.13;;;53.50;;
77701;SDS011;66868;42.708;23.404;2023-02-13T03:29:38;125.67;;;52.10;;
77701;SDS011;66868;42.708;23.404;2023-02-13T03:38:06;125.50;;;48.77;;
77701;SDS011;66868;42.708;23.404;2023-02-13T03:40:57;117.37;;;48.03;;
77701;SDS011;66868;42.708;23.404;2023-02-13T03:46:34;125.73;;;50.47;;
77701;SDS011;66868;42.708;23.404;2023-02-13T03:49:03;121.37;;;49.67;;
77701;SDS011;66868;42.708;23.404;2023-02-13T03:52:01;122.23;;;49.57;;
77701;SDS011;66868;42.708;23.404;2023-02-13T03:54:34;126.17;;;52.17;;
77701;SDS011;66868;42.708;23.404;2023-02-13T03:57:25;125.47;;;50.43;;
77701;SDS011;66868;42.708;23.404;2023-02-13T04:00:15;132.17;;;53.33;;
77701;SDS011;66868;42.708;23.404;2023-02-13T04:02:51;126.40;;;50.77;;
77701;SDS011;66868;42.708;23.404;2023-02-13T04:05:23;127.97;;;49.83;;
77701;SDS011;66868;42.708;23.404;2023-02-13T04:07:52;127.27;;;50.93;;
77701;SDS011;66868;42.708;23.404;2023-02-13T04:10:17;117.80;;;50.50;;
77701;SDS011;66868;42.708;23.404;2023-02-13T04:12:52;115.70;;;47.93;;
77701;SDS011;66868;42.708;23.404;2023-02-13T04:15:33;119.80;;;51.20;;
77701;SDS011;66868;42.708;23.404;2023-02-13T04:18:07;116.40;;;50.07;;
77701;SDS011;66868;42.708;23.404;2023-02-13T04:20:37;123.77;;;50.00;;
77701;SDS011;66868;42.708;23.404;2023-02-13T04:23:04;126.40;;;53.17;;
77701;SDS011;66868;42.708;23.404;2023-02-13T04:25:31;112.93;;;48.53;;
77701;SDS011;66868;42.708;23.404;2023-02-13T04:27:57;126.33;;;51.83;;
77701;SDS011;66868;42.708;23.404;2023-02-13T04:30:23;121.07;;;53.80;;
77701;SDS011;66868;42.708;23.404;2023-02-13T04:32:48;133.97;;;51.67;;
77701;SDS011;66868;42.708;23.404;2023-02-13T04:35:13;135.07;;;54.27;;
77701;SDS011;66868;42.708;23.404;2023-02-13T04:37:39;139.97;;;56.07;;
77701;SDS011;66868;42.708;23.404;2023-02-13T04:40:05;146.77;;;60.63;;
77701;SDS011;66868;42.708;23.404;2023-02-13T04:42:31;170.27;;;67.60;;
77701;SDS011;66868;42.708;23.404;2023-02-13T04:44:56;140.23;;;58.90;;
77701;SDS011;66868;42.708;23.404;2023-02-13T04:47:21;151.87;;;58.00;;
77701;SDS011;66868;42.708;23.404;2023-02-13T04:49:47;134.43;;;55.80;;
77701;SDS011;66868;42.708;23.404;2023-02-13T04:52:12;124.37;;;54.07;;
77701;SDS011;66868;42.708;23.404;2023-02-13T04:54:39;131.60;;;54.67;;
77701;SDS011;66868;42.708;23.404;2023-02-13T04:57:04;130.80;;;54.70;;
77701;SDS011;66868;42.708;23.404;2023-02-13T04:59:30;137.93;;;54.67;;
77701;SDS011;66868;42.708;23.404;2023-02-13T05:01:55;143.57;;;59.97;;
77701;SDS011;66868;42.708;23.404;2023-02-13T05:04:23;147.90;;;59.43;;
77701;SDS011;66868;42.708;23.404;2023-02-13T05:06:49;152.50;;;61.17;;
77701;SDS011;66868;42.708;23.404;2023-02-13T05:09:14;142.77;;;57.63;;
77701;SDS011;66868;42.708;23.404;2023-02-13T05:11:40;143.33;;;59.53;;
77701;SDS011;66868;42.708;23.404;2023-02-13T05:14:05;143.70;;;58.93;;
77701;SDS011;66868;42.708;23.404;2023-02-13T05:16:30;143.03;;;59.17;;
77701;SDS011;66868;42.708;23.404;2023-02-13T05:18:56;151.60;;;61.00;;
77701;SDS011;66868;42.708;23.404;2023-02-13T05:21:21;143.93;;;60.03;;
77701;SDS011;66868;42.708;23.404;2023-02-13T05:24:05;146.03;;;60.70;;
77701;SDS011;66868;42.708;23.404;2023-02-13T05:26:30;138.00;;;56.90;;
77701;SDS011;66868;42.708;23.404;2023-02-13T05:28:56;158.37;;;63.63;;
77701;SDS011;66868;42.708;23.404;2023-02-13T05:31:40;160.20;;;65.00;;
77701;SDS011;66868;42.708;23.404;2023-02-13T05:34:05;155.83;;;61.47;;
77701;SDS011;66868;42.708;23.404;2023-02-13T05:36:30;148.97;;;62.83;;
77701;SDS011;66868;42.708;23.404;2023-02-13T05:38:56;137.10;;;59.60;;
77701;SDS011;66868;42.708;23.404;2023-02-13T05:41:21;151.87;;;63.40;;
77701;SDS011;66868;42.708;23.404;2023-02-13T05:43:47;144.53;;;56.93;;
77701;SDS011;66868;42.708;23.404;2023-02-13T05:46:12;142.97;;;59.87;;
77701;SDS011;66868;42.708;23.404;2023-02-13T05:48:37;137.80;;;59.07;;
77701;SDS011;66868;42.708;23.404;2023-02-13T05:51:03;137.23;;;58.70;;
77701;SDS011;66868;42.708;23.404;2023-02-13T05:53:30;142.07;;;60.30;;
77701;SDS011;66868;42.708;23.404;2023-02-13T05:55:59;146.80;;;60.03;;
77701;SDS011;66868;42.708;23.404;2023-02-13T05:58:24;149.70;;;61.20;;
77701;SDS011;66868;42.708;23.404;2023-02-13T06:00:53;143.20;;;59.30;;
77701;SDS011;66868;42.708;23.404;2023-02-13T06:03:20;124.03;;;53.30;;
77701;SDS011;66868;42.708;23.404;2023-02-13T06:05:45;121.23;;;50.83;;
77701;SDS011;66868;42.708;23.404;2023-02-13T06:08:11;129.33;;;51.40;;
77701;SDS011;66868;42.708;23.404;2023-02-13T06:10:36;115.87;;;48.60;;
77701;SDS011;66868;42.708;23.404;2023-02-13T06:13:02;130.43;;;50.93;;
77701;SDS011;66868;42.708;23.404;2023-02-13T06:15:27;118.73;;;48.07;;
77701;SDS011;66868;42.708;23.404;2023-02-13T06:17:53;112.97;;;47.77;;
77701;SDS011;66868;42.708;23.404;2023-02-13T06:20:18;120.23;;;51.17;;
77701;SDS011;66868;42.708;23.404;2023-02-13T06:22:46;118.33;;;49.20;;
77701;SDS011;66868;42.708;23.404;2023-02-13T06:25:12;123.13;;;50.37;;
77701;SDS011;66868;42.708;23.404;2023-02-13T06:27:37;110.60;;;48.60;;
77701;SDS011;66868;42.708;23.404;2023-02-13T06:30:03;117.20;;;50.87;;
77701;SDS011;66868;42.708;23.404;2023-02-13T06:32:29;107.27;;;47.37;;
77701;SDS011;66868;42.708;23.404;2023-02-13T06:34:54;128.23;;;52.83;;
77701;SDS011;66868;42.708;23.404;2023-02-13T06:37:19;132.00;;;55.07;;
77701;SDS011;66868;42.708;23.404;2023-02-13T06:39:45;131.97;;;57.47;;
77701;SDS011;66868;42.708;23.404;2023-02-13T06:42:10;158.47;;;66.10;;
77701;SDS011;66868;42.708;23.404;2023-02-13T06:44:35;162.67;;;66.30;;
77701;SDS011;66868;42.708;23.404;2023-02-13T06:47:01;162.57;;;68.83;;
77701;SDS011;66868;42.708;23.404;2023-02-13T06:49:26;173.00;;;75.90;;
77701;SDS011;66868;42.708;23.404;2023-02-13T06:51:51;192.67;;;85.40;;
77701;SDS011;66868;42.708;23.404;2023-02-13T06:54:17;184.97;;;80.93;;
77701;SDS011;66868;42.708;23.404;2023-02-13T06:56:42;191.67;;;86.67;;
77701;SDS011;66868;42.708;23.404;2023-02-13T06:59:07;205.97;;;89.20;;
77701;SDS011;66868;42.708;23.404;2023-02-13T07:01:33;225.70;;;97.80;;
77701;SDS011;66868;42.708;23.404;2023-02-13T07:03:58;225.40;;;101.97;;
77701;SDS011;66868;42.708;23.404;2023-02-13T07:06:23;234.90;;;99.80;;
77701;SDS011;66868;42.708;23.404;2023-02-13T07:08:49;154.57;;;64.00;;
77701;SDS011;66868;42.708;23.404;2023-02-13T07:11:19;139.50;;;61.77;;
77701;SDS011;66868;42.708;23.404;2023-02-13T07:13:46;149.17;;;67.20;;
77701;SDS011;66868;42.708;23.404;2023-02-13T07:16:14;154.03;;;65.90;;
77701;SDS011;66868;42.708;23.404;2023-02-13T07:18:40;142.70;;;61.20;;
77701;SDS011;66868;42.708;23.404;2023-02-13T07:21:06;135.77;;;55.23;;
77701;SDS011;66868;42.708;23.404;2023-02-13T07:23:32;126.67;;;51.30;;
77701;SDS011;66868;42.708;23.404;2023-02-13T07:25:58;134.37;;;54.47;;
77701;SDS011;66868;42.708;23.404;2023-02-13T07:28:24;122.10;;;51.13;;
77701;SDS011;66868;42.708;23.404;2023-02-13T07:30:50;134.70;;;54.97;;
77701;SDS011;66868;42.708;23.404;2023-02-13T07:33:16;118.13;;;52.10;;
77701;SDS011;66868;42.708;23.404;2023-02-13T07:35:48;120.57;;;52.33;;
77701;SDS011;66868;42.708;23.404;2023-02-13T07:38:15;130.63;;;53.27;;
77701;SDS011;66868;42.708;23.404;2023-02-13T07:40:42;126.43;;;52.67;;
77701;SDS011;66868;42.708;23.404;2023-02-13T07:43:07;118.83;;;51.80;;
77701;SDS011;66868;42.708;23.404;2023-02-13T07:45:32;123.60;;;54.97;;
77701;SDS011;66868;42.708;23.404;2023-02-13T07:47:58;119.27;;;54.07;;
77701;SDS011;66868;42.708;23.404;2023-02-13T07:50:26;113.73;;;50.13;;
77701;SDS011;66868;42.708;23.404;2023-02-13T07:52:53;125.40;;;51.67;;
77701;SDS011;66868;42.708;23.404;2023-02-13T07:55:19;127.93;;;54.47;;
77701;SDS011;66868;42.708;23.404;2023-02-13T07:57:44;132.73;;;54.20;;
77701;SDS011;66868;42.708;23.404;2023-02-13T08:00:10;114.17;;;52.70;;
77701;SDS011;66868;42.708;23.404;2023-02-13T08:02:36;117.27;;;52.57;;
77701;SDS011;66868;42.708;23.404;2023-02-13T08:05:01;120.93;;;54.20;;
77701;SDS011;66868;42.708;23.404;2023-02-13T08:07:26;116.43;;;52.57;;
77701;SDS011;66868;42.708;23.404;2023-02-13T08:09:52;125.47;;;54.43;;
77701;SDS011;66868;42.708;23.404;2023-02-13T08:12:35;134.63;;;55.47;;
77701;SDS011;66868;42.708;23.404;2023-02-13T08:15:01;122.17;;;50.43;;
77701;SDS011;66868;42.708;23.404;2023-02-13T08:17:27;108.57;;;49.20;;
77701;SDS011;66868;42.708;23.404;2023-02-13T08:19:53;100.97;;;48.40;;
77701;SDS011;66868;42.708;23.404;2023-02-13T08:22:19;101.93;;;46.03;;
77701;SDS011;66868;42.708;23.404;2023-02-13T08:24:44;95.13;;;45.17;;
77701;SDS011;66868;42.708;23.404;2023-02-13T08:27:11;101.33;;;47.60;;
77701;SDS011;66868;42.708;23.404;2023-02-13T08:29:37;106.27;;;48.17;;
77701;SDS011;66868;42.708;23.404;2023-02-13T08:32:02;103.83;;;48.03;;
77701;SDS011;66868;42.708;23.404;2023-02-13T08:34:27;100.10;;;46.07;;
77701;SDS011;66868;42.708;23.404;2023-02-13T08:36:53;99.77;;;42.40;;
77701;SDS011;66868;42.708;23.404;2023-02-13T08:39:18;93.37;;;43.90;;
77701;SDS011;66868;42.708;23.404;2023-02-13T08:41:43;103.40;;;44.27;;
77701;SDS011;66868;42.708;23.404;2023-02-13T08:44:09;104.77;;;45.93;;
77701;SDS011;66868;42.708;23.404;2023-02-13T08:46:35;94.47;;;44.27;;
77701;SDS011;66868;42.708;23.404;2023-02-13T08:49:00;98.10;;;46.23;;
77701;SDS011;66868;42.708;23.404;2023-02-13T08:51:26;86.70;;;41.83;;
77701;SDS011;66868;42.708;23.404;2023-02-13T08:53:51;92.37;;;42.47;;
77701;SDS011;66868;42.708;23.404;2023-02-13T08:56:16;93.27;;;42.83;;
77701;SDS011;66868;42.708;23.404;2023-02-13T08:58:42;77.20;;;37.80;;
77701;SDS011;66868;42.708;23.404;2023-02-13T09:01:08;73.13;;;34.23;;
77701;SDS011;66868;42.708;23.404;2023-02-13T09:03:34;73.10;;;35.03;;
77701;SDS011;66868;42.708;23.404;2023-02-13T09:06:00;69.13;;;33.60;;
77701;SDS011;66868;42.708;23.404;2023-02-13T09:08:26;74.47;;;33.47;;
77701;SDS011;66868;42.708;23.404;2023-02-13T09:10:59;70.33;;;33.97;;
77701;SDS011;66868;42.708;23.404;2023-02-13T09:13:27;68.17;;;35.87;;
77701;SDS011;66868;42.708;23.404;2023-02-13T09:15:53;79.17;;;36.23;;
77701;SDS011;66868;42.708;23.404;2023-02-13T09:18:21;72.43;;;35.27;;
77701;SDS011;66868;42.708;23.404;2023-02-13T09:20:46;64.20;;;32.17;;
77701;SDS011;66868;42.708;23.404;2023-02-13T09:23:12;74.17;;;36.00;;
77701;SDS011;66868;42.708;23.404;2023-02-13T09:25:37;83.63;;;38.90;;
77701;SDS011;66868;42.708;23.404;2023-02-13T09:28:02;84.23;;;37.20;;
77701;SDS011;66868;42.708;23.404;2023-02-13T09:30:28;84.77;;;38.07;;
77701;SDS011;66868;42.708;23.404;2023-02-13T09:32:53;73.77;;;36.00;;
77701;SDS011;66868;42.708;23.404;2023-02-13T09:35:19;64.77;;;32.10;;
77701;SDS011;66868;42.708;23.404;2023-02-13T09:37:45;68.30;;;30.43;;
77701;SDS011;66868;42.708;23.404;2023-02-13T09:43:12;71.60;;;31.60;;
77701;SDS011;66868;42.708;23.404;2023-02-13T09:45:42;67.73;;;30.87;;
77701;SDS011;66868;42.708;23.404;2023-02-13T09:48:14;68.80;;;32.37;;
77701;SDS011;66868;42.708;23.404;2023-02-13T09:50:47;64.13;;;31.47;;
77701;SDS011;66868;42.708;23.404;2023-02-13T09:53:16;66.73;;;31.77;;
77701;SDS011;66868;42.708;23.404;2023-02-13T09:55:48;102.33;;;48.60;;
77701;SDS011;66868;42.708;23.404;2023-02-13T10:01:04;65.73;;;32.87;;
77701;SDS011;66868;42.708;23.404;2023-02-13T10:03:54;67.77;;;33.30;;
77701;SDS011;66868;42.708;23.404;2023-02-13T10:06:41;66.37;;;31.77;;
77701;SDS011;66868;42.708;23.404;2023-02-13T10:09:28;67.03;;;30.90;;
77701;SDS011;66868;42.708;23.404;2023-02-13T10:12:04;73.23;;;35.00;;
77701;SDS011;66868;42.708;23.404;2023-02-13T10:14:40;85.33;;;36.70;;
77701;SDS011;66868;42.708;23.404;2023-02-13T10:17:29;63.17;;;31.77;;
77701;SDS011;66868;42.708;23.404;2023-02-13T10:20:09;72.00;;;33.93;;
77701;SDS011;66868;42.708;23.404;2023-02-13T10:22:43;70.30;;;33.17;;
77701;SDS011;66868;42.708;23.404;2023-02-13T10:25:17;69.93;;;31.53;;
77701;SDS011;66868;42.708;23.404;2023-02-13T10:27:48;65.17;;;31.27;;
77701;SDS011;66868;42.708;23.404;2023-02-13T10:30:21;71.37;;;33.90;;
77701;SDS011;66868;42.708;23.404;2023-02-13T10:38:22;77.13;;;34.43;;
77701;SDS011;66868;42.708;23.404;2023-02-13T11:03:10;67.53;;;32.67;;
77701;SDS011;66868;42.708;23.404;2023-02-13T11:05:42;64.47;;;30.07;;
77701;SDS011;66868;42.708;23.404;2023-02-13T11:08:13;62.40;;;29.77;;
77701;SDS011;66868;42.708;23.404;2023-02-13T11:10:40;65.60;;;31.90;;
77701;SDS011;66868;42.708;23.404;2023-02-13T11:13:19;58.07;;;29.50;;
77701;SDS011;66868;42.708;23.404;2023-02-13T11:16:05;58.70;;;29.77;;
77701;SDS011;66868;42.708;23.404;2023-02-13T11:18:37;63.43;;;30.50;;
77701;SDS011;66868;42.708;23.404;2023-02-13T11:23:45;57.57;;;29.20;;
77701;SDS011;66868;42.708;23.404;2023-02-13T11:26:21;56.08;;;28.98;;
77701;SDS011;66868;42.708;23.404;2023-02-13T11:28:54;63.10;;;31.00;;
77701;SDS011;66868;42.708;23.404;2023-02-13T11:33:53;54.50;;;27.23;;
77701;SDS011;66868;42.708;23.404;2023-02-13T11:39:06;57.95;;;29.40;;
77701;SDS011;66868;42.708;23.404;2023-02-13T11:41:50;56.13;;;26.98;;
77701;SDS011;66868;42.708;23.404;2023-02-13T11:44:24;57.20;;;29.75;;
77701;SDS011;66868;42.708;23.404;2023-02-13T11:46:52;46.28;;;25.33;;
77701;SDS011;66868;42.708;23.404;2023-02-13T11:51:53;47.13;;;24.00;;
77701;SDS011;66868;42.708;23.404;2023-02-13T11:54:39;39.35;;;21.10;;
77701;SDS011;66868;42.708;23.404;2023-02-13T11:59:45;38.30;;;21.17;;
77701;SDS011;66868;42.708;23.404;2023-02-13T12:04:52;36.40;;;19.45;;
77701;SDS011;66868;42.708;23.404;2023-02-13T12:07:27;34.40;;;19.35;;
77701;SDS011;66868;42.708;23.404;2023-02-13T12:12:27;35.35;;;19.85;;
77701;SDS011;66868;42.708;23.404;2023-02-13T12:15:00;33.55;;;21.02;;
77701;SDS011;66868;42.708;23.404;2023-02-13T12:17:29;26.00;;;15.02;;
77701;SDS011;66868;42.708;23.404;2023-02-13T12:19:58;25.15;;;15.02;;
77701;SDS011;66868;42.708;23.404;2023-02-13T12:25:24;23.20;;;13.50;;
77701;SDS011;66868;42.708;23.404;2023-02-13T13:03:01;16.27;;;10.05;;
77701;SDS011;66868;42.708;23.404;2023-02-13T13:16:19;12.82;;;8.98;;
77701;SDS011;66868;42.708;23.404;2023-02-13T13:22:03;16.27;;;9.60;;
77701;SDS011;66868;42.708;23.404;2023-02-13T13:27:16;11.25;;;8.40;;
77701;SDS011;66868;42.708;23.404;2023-02-13T13:29:47;12.75;;;8.82;;
77701;SDS011;66868;42.708;23.404;2023-02-13T13:32:18;10.10;;;8.50;;
77701;SDS011;66868;42.708;23.404;2023-02-13T13:34:45;10.13;;;7.45;;
77701;SDS011;66868;42.708;23.404;2023-02-13T13:39:50;9.02;;;8.10;;
77701;SDS011;66868;42.708;23.404;2023-02-13T13:42:31;12.93;;;10.23;;
77701;SDS011;66868;42.708;23.404;2023-02-13T13:50:38;16.77;;;12.48;;
77701;SDS011;66868;42.708;23.404;2023-02-13T13:58:24;13.40;;;9.98;;
77701;SDS011;66868;42.708;23.404;2023-02-13T14:03:48;15.30;;;9.75;;
77701;SDS011;66868;42.708;23.404;2023-02-13T14:06:18;10.90;;;9.35;;
77701;SDS011;66868;42.708;23.404;2023-02-13T14:11:43;17.70;;;12.13;;
77701;SDS011;66868;42.708;23.404;2023-02-13T14:16:57;14.23;;;10.48;;
77701;SDS011;66868;42.708;23.404;2023-02-13T14:19:30;13.63;;;11.13;;
77701;SDS011;66868;42.708;23.404;2023-02-13T14:24:58;15.40;;;11.00;;
77701;SDS011;66868;42.708;23.404;2023-02-13T14:27:36;15.05;;;11.70;;
77701;SDS011;66868;42.708;23.404;2023-02-13T14:30:04;15.77;;;10.85;;
77701;SDS011;66868;42.708;23.404;2023-02-13T14:32:46;13.85;;;11.80;;
77701;SDS011;66868;42.708;23.404;2023-02-13T14:35:19;19.67;;;12.55;;
77701;SDS011;66868;42.708;23.404;2023-02-13T14:37:52;15.10;;;11.30;;
77701;SDS011;66868;42.708;23.404;2023-02-13T14:40:30;14.18;;;10.85;;
77701;SDS011;66868;42.708;23.404;2023-02-13T14:43:20;17.30;;;11.35;;
77701;SDS011;66868;42.708;23.404;2023-02-13T14:48:33;17.40;;;11.95;;
77701;SDS011;66868;42.708;23.404;2023-02-13T14:51:03;18.02;;;12.73;;
77701;SDS011;66868;42.708;23.404;2023-02-13T14:53:43;20.30;;;12.63;;
77701;SDS011;66868;42.708;23.404;2023-02-13T14:56:15;17.33;;;12.52;;
77701;SDS011;66868;42.708;23.404;2023-02-13T14:58:46;20.80;;;13.63;;
77701;SDS011;66868;42.708;23.404;2023-02-13T15:01:31;17.38;;;12.05;;
77701;SDS011;66868;42.708;23.404;2023-02-13T15:04:09;19.90;;;11.90;;
77701;SDS011;66868;42.708;23.404;2023-02-13T15:06:40;21.40;;;12.55;;
77701;SDS011;66868;42.708;23.404;2023-02-13T15:15:00;21.77;;;11.38;;
77701;SDS011;66868;42.708;23.404;2023-02-13T15:17:27;16.52;;;10.30;;
77701;SDS011;66868;42.708;23.404;2023-02-13T15:20:24;18.20;;;11.05;;
77701;SDS011;66868;42.708;23.404;2023-02-13T15:22:50;17.52;;;10.68;;
77701;SDS011;66868;42.708;23.404;2023-02-13T15:25:24;17.20;;;10.35;;
77701;SDS011;66868;42.708;23.404;2023-02-13T15:28:01;18.33;;;11.40;;
77701;SDS011;66868;42.708;23.404;2023-02-13T15:32:55;19.00;;;10.65;;
77701;SDS011;66868;42.708;23.404;2023-02-13T15:35:29;21.15;;;10.55;;
77701;SDS011;66868;42.708;23.404;2023-02-13T15:37:56;15.90;;;10.67;;
77701;SDS011;66868;42.708;23.404;2023-02-13T15:40:40;19.67;;;11.00;;
77701;SDS011;66868;42.708;23.404;2023-02-13T15:43:11;21.13;;;11.90;;
77701;SDS011;66868;42.708;23.404;2023-02-13T15:45:55;20.48;;;11.88;;
77701;SDS011;66868;42.708;23.404;2023-02-13T15:48:25;28.57;;;12.37;;
77701;SDS011;66868;42.708;23.404;2023-02-13T15:50:53;25.27;;;13.57;;
77701;SDS011;66868;42.708;23.404;2023-02-13T15:53:19;29.35;;;14.75;;
77701;SDS011;66868;42.708;23.404;2023-02-13T15:56:02;25.05;;;14.45;;
77701;SDS011;66868;42.708;23.404;2023-02-13T15:58:32;24.30;;;13.23;;
77701;SDS011;66868;42.708;23.404;2023-02-13T16:01:00;20.37;;;12.80;;
77701;SDS011;66868;42.708;23.404;2023-02-13T16:03:29;25.63;;;12.83;;
77701;SDS011;66868;42.708;23.404;2023-02-13T16:05:57;26.97;;;13.53;;
77701;SDS011;66868;42.708;23.404;2023-02-13T16:08:30;22.33;;;13.27;;
77701;SDS011;66868;42.708;23.404;2023-02-13T16:13:55;21.37;;;13.10;;
77701;SDS011;66868;42.708;23.404;2023-02-13T16:16:28;24.73;;;14.60;;
77701;SDS011;66868;42.708;23.404;2023-02-13T16:18:56;27.17;;;15.03;;
77701;SDS011;66868;42.708;23.404;2023-02-13T16:21:22;25.60;;;14.47;;
77701;SDS011;66868;42.708;23.404;2023-02-13T16:23:55;24.77;;;13.87;;
77701;SDS011;66868;42.708;23.404;2023-02-13T16:26:24;26.57;;;14.63;;
77701;SDS011;66868;42.708;23.404;2023-02-13T16:28:50;27.83;;;15.90;;
77701;SDS011;66868;42.708;23.404;2023-02-13T16:31:16;36.77;;;15.33;;
77701;SDS011;66868;42.708;23.404;2023-02-13T16:33:43;33.47;;;17.33;;
77701;SDS011;66868;42.708;23.404;2023-02-13T16:38:38;35.17;;;18.77;;
77701;SDS011;66868;42.708;23.404;2023-02-13T16:43:55;29.33;;;16.80;;
77701;SDS011;66868;42.708;23.404;2023-02-13T16:46:52;31.53;;;17.57;;
77701;SDS011;66868;42.708;23.404;2023-02-13T16:49:21;37.67;;;18.97;;
77701;SDS011;66868;42.708;23.404;2023-02-13T16:51:50;32.50;;;18.33;;
77701;SDS011;66868;42.708;23.404;2023-02-13T17:02:37;38.97;;;19.30;;
77701;SDS011;66868;42.708;23.404;2023-02-13T17:07:33;38.67;;;20.47;;
77701;SDS011;66868;42.708;23.404;2023-02-13T17:10:22;38.27;;;20.70;;
77701;SDS011;66868;42.708;23.404;2023-02-13T17:12:47;36.60;;;19.77;;
77701;SDS011;66868;42.708;23.404;2023-02-13T17:15:15;36.07;;;19.07;;
77701;SDS011;66868;42.708;23.404;2023-02-13T17:17:42;35.20;;;19.23;;
77701;SDS011;66868;42.708;23.404;2023-02-13T17:20:12;36.50;;;19.73;;
77701;SDS011;66868;42.708;23.404;2023-02-13T17:22:43;42.80;;;20.63;;
77701;SDS011;66868;42.708;23.404;2023-02-13T17:25:15;40.50;;;20.60;;
77701;SDS011;66868;42.708;23.404;2023-02-13T17:27:46;40.47;;;20.40;;
77701;SDS011;66868;42.708;23.404;2023-02-13T17:30:15;40.80;;;21.27;;
77701;SDS011;66868;42.708;23.404;2023-02-13T17:32:43;35.87;;;20.47;;
77701;SDS011;66868;42.708;23.404;2023-02-13T17:35:10;42.03;;;20.13;;